createdAt,value
2023-03-29T00:00:55.654Z,475.00
2023-03-29T00:01:55.666Z,477.00
2023-03-29T00:02:55.712Z,478.00
2023-03-29T00:03:55.780Z,477.00
2023-03-29T00:04:55.650Z,475.00
2023-03-29T00:05:55.667Z,472.00
2023-03-29T00:06:55.676Z,474.00
2023-03-29T00:07:55.681Z,477.00
2023-03-29T00:08:55.631Z,477.00
2023-03-29T00:09:55.648Z,476.00
2023-03-29T00:10:55.672Z,475.00
2023-03-29T00:11:55.656Z,475.00
2023-03-29T00:12:55.643Z,475.00
2023-03-29T00:13:55.645Z,475.00
2023-03-29T00:14:55.644Z,474.00
2023-03-29T00:15:55.628Z,474.00
2023-03-29T00:16:55.626Z,473.00
2023-03-29T00:17:55.710Z,474.00
2023-03-29T00:18:55.616Z,475.00
2023-03-29T00:19:55.671Z,475.00
2023-03-29T00:20:55.616Z,473.00
2023-03-29T00:21:55.628Z,473.00
2023-03-29T00:22:55.624Z,474.00
2023-03-29T00:23:55.620Z,472.00
2023-03-29T00:24:55.649Z,473.00
2023-03-29T00:25:55.618Z,473.00
2023-03-29T00:26:55.624Z,474.00
2023-03-29T00:27:55.600Z,474.00
2023-03-29T00:28:55.593Z,475.00
2023-03-29T00:29:55.606Z,476.00
2023-03-29T00:30:55.608Z,477.00
2023-03-29T00:31:55.733Z,476.00
2023-03-29T00:32:55.685Z,477.00
2023-03-29T00:33:55.578Z,476.00
2023-03-29T00:34:55.583Z,473.00
2023-03-29T00:35:55.598Z,473.00
2023-03-29T00:36:55.563Z,472.00
2023-03-29T00:37:55.571Z,474.00
2023-03-29T00:38:55.561Z,473.00
2023-03-29T00:39:55.542Z,472.00
2023-03-29T00:40:55.547Z,471.00
2023-03-29T00:41:55.591Z,472.00
2023-03-29T00:42:55.556Z,474.00
2023-03-29T00:43:55.546Z,476.00
2023-03-29T00:44:55.530Z,478.00
2023-03-29T00:45:55.615Z,476.00
2023-03-29T00:46:55.534Z,476.00
2023-03-29T00:47:55.581Z,474.00
2023-03-29T00:48:55.567Z,473.00
2023-03-29T00:49:55.552Z,471.00
2023-03-29T00:50:55.505Z,472.00
2023-03-29T00:51:55.531Z,472.00
2023-03-29T00:52:55.533Z,470.00
2023-03-29T00:53:55.537Z,469.00
2023-03-29T00:54:55.520Z,471.00
2023-03-29T00:55:55.510Z,471.00
2023-03-29T00:56:55.572Z,470.00
2023-03-29T00:57:55.505Z,470.00
2023-03-29T00:58:55.495Z,470.00
2023-03-29T00:59:55.519Z,470.00
2023-03-29T01:00:55.486Z,472.00
2023-03-29T01:01:55.543Z,476.00
2023-03-29T01:02:55.555Z,476.00
2023-03-29T01:03:55.517Z,477.00
2023-03-29T01:04:55.499Z,479.00
2023-03-29T01:05:55.512Z,480.00
2023-03-29T01:06:55.566Z,480.00
2023-03-29T01:07:55.509Z,480.00
2023-03-29T01:08:55.503Z,481.00
2023-03-29T01:09:55.520Z,478.00
2023-03-29T01:10:55.556Z,480.00
2023-03-29T01:11:55.498Z,477.00
2023-03-29T01:12:55.530Z,474.00
2023-03-29T01:13:55.504Z,474.00
2023-03-29T01:14:55.497Z,479.00
2023-03-29T01:15:55.523Z,476.00
2023-03-29T01:16:55.571Z,473.00
2023-03-29T01:17:55.691Z,473.00
2023-03-29T01:18:55.508Z,473.00
2023-03-29T01:19:55.508Z,473.00
2023-03-29T01:20:55.527Z,473.00
2023-03-29T01:21:55.533Z,471.00
2023-03-29T01:22:55.527Z,470.00
2023-03-29T01:23:55.521Z,470.00
2023-03-29T01:24:55.515Z,468.00
2023-03-29T01:25:55.527Z,467.00
2023-03-29T01:26:55.544Z,468.00
2023-03-29T01:27:55.533Z,467.00
2023-03-29T01:28:55.531Z,469.00
2023-03-29T01:29:55.538Z,470.00
2023-03-29T01:30:55.520Z,471.00
2023-03-29T01:31:55.597Z,473.00
2023-03-29T01:32:55.554Z,474.00
2023-03-29T01:33:55.525Z,474.00
2023-03-29T01:34:55.558Z,473.00
2023-03-29T01:35:55.589Z,473.00
2023-03-29T01:36:55.542Z,471.00
2023-03-29T01:37:55.552Z,469.00
2023-03-29T01:38:55.532Z,470.00
2023-03-29T01:39:55.556Z,471.00
2023-03-29T01:40:55.533Z,471.00
2023-03-29T01:41:55.585Z,470.00
2023-03-29T01:42:55.562Z,468.00
2023-03-29T01:43:55.580Z,466.00
2023-03-29T01:44:55.583Z,467.00
2023-03-29T01:45:55.606Z,468.00
2023-03-29T01:46:55.541Z,465.00
2023-03-29T01:47:55.639Z,464.00
2023-03-29T01:48:55.546Z,464.00
2023-03-29T01:49:55.564Z,466.00
2023-03-29T01:50:55.605Z,465.00
2023-03-29T01:51:55.587Z,465.00
2023-03-29T01:52:55.590Z,464.00
2023-03-29T01:53:55.592Z,464.00
2023-03-29T01:54:55.605Z,465.00
2023-03-29T01:55:55.600Z,465.00
2023-03-29T01:56:55.621Z,464.00
2023-03-29T01:57:55.603Z,463.00
2023-03-29T01:58:55.602Z,464.00
2023-03-29T01:59:55.608Z,464.00
2023-03-29T02:00:55.695Z,464.00
2023-03-29T02:01:55.612Z,464.00
2023-03-29T02:02:55.714Z,464.00
2023-03-29T02:03:55.624Z,464.00
2023-03-29T02:04:55.616Z,464.00
2023-03-29T02:05:55.641Z,465.00
2023-03-29T02:06:55.667Z,465.00
2023-03-29T02:07:55.684Z,465.00
2023-03-29T02:08:55.708Z,466.00
2023-03-29T02:09:55.686Z,465.00
2023-03-29T02:10:55.705Z,464.00
2023-03-29T02:11:55.705Z,462.00
2023-03-29T02:12:55.700Z,461.00
2023-03-29T02:13:55.693Z,459.00
2023-03-29T02:14:55.725Z,459.00
2023-03-29T02:15:55.754Z,461.00
2023-03-29T02:16:55.718Z,461.00
2023-03-29T02:17:55.702Z,461.00
2023-03-29T02:18:55.702Z,463.00
2023-03-29T02:19:55.724Z,464.00
2023-03-29T02:20:55.718Z,463.00
2023-03-29T02:21:55.747Z,464.00
2023-03-29T02:22:55.744Z,464.00
2023-03-29T02:23:55.746Z,466.00
2023-03-29T02:24:55.717Z,467.00
2023-03-29T02:25:55.755Z,465.00
2023-03-29T02:26:55.762Z,465.00
2023-03-29T02:27:55.763Z,465.00
2023-03-29T02:28:55.761Z,464.00
2023-03-29T02:29:55.794Z,463.00
2023-03-29T02:30:55.794Z,463.00
2023-03-29T02:31:55.760Z,461.00
2023-03-29T02:32:55.795Z,461.00
2023-03-29T02:33:55.774Z,460.00
2023-03-29T02:34:55.823Z,461.00
2023-03-29T02:35:55.799Z,462.00
2023-03-29T02:36:55.779Z,465.00
2023-03-29T02:37:55.785Z,465.00
2023-03-29T02:38:55.804Z,463.00
2023-03-29T02:39:55.806Z,462.00
2023-03-29T02:40:55.789Z,462.00
2023-03-29T02:41:55.805Z,461.00
2023-03-29T02:42:55.814Z,459.00
2023-03-29T02:43:55.815Z,459.00
2023-03-29T02:44:55.816Z,460.00
2023-03-29T02:45:55.847Z,460.00
2023-03-29T02:46:55.872Z,459.00
2023-03-29T02:47:55.868Z,459.00
2023-03-29T02:48:55.866Z,460.00
2023-03-29T02:49:55.861Z,460.00
2023-03-29T02:50:55.880Z,460.00
2023-03-29T02:51:55.860Z,460.00
2023-03-29T02:52:55.883Z,457.00
2023-03-29T02:53:55.865Z,458.00
2023-03-29T02:54:55.889Z,457.00
2023-03-29T02:55:55.898Z,456.00
2023-03-29T02:56:55.934Z,455.00
2023-03-29T02:57:55.912Z,455.00
2023-03-29T02:58:55.906Z,455.00
2023-03-29T02:59:55.896Z,457.00
2023-03-29T03:00:55.911Z,457.00
2023-03-29T03:01:55.994Z,456.00
2023-03-29T03:02:55.991Z,454.00
2023-03-29T03:03:55.953Z,455.00
2023-03-29T03:04:55.942Z,454.00
2023-03-29T03:05:55.940Z,452.00
2023-03-29T03:06:55.944Z,450.00
2023-03-29T03:07:55.959Z,448.00
2023-03-29T03:08:55.997Z,450.00
2023-03-29T03:09:55.988Z,450.00
2023-03-29T03:10:55.971Z,451.00
2023-03-29T03:11:55.977Z,454.00
2023-03-29T03:12:55.960Z,459.00
2023-03-29T03:13:55.991Z,460.00
2023-03-29T03:14:56.013Z,461.00
2023-03-29T03:15:56.040Z,461.00
2023-03-29T03:16:55.962Z,460.00
2023-03-29T03:17:56.059Z,460.00
2023-03-29T03:18:55.982Z,462.00
2023-03-29T03:19:55.952Z,464.00
2023-03-29T03:20:55.980Z,465.00
2023-03-29T03:21:55.943Z,467.00
2023-03-29T03:22:55.986Z,469.00
2023-03-29T03:23:55.956Z,471.00
2023-03-29T03:24:56.056Z,470.00
2023-03-29T03:25:55.976Z,472.00
2023-03-29T03:26:55.994Z,471.00
2023-03-29T03:27:56.005Z,469.00
2023-03-29T03:28:56.021Z,468.00
2023-03-29T03:29:55.999Z,465.00
2023-03-29T03:30:56.023Z,465.00
2023-03-29T03:31:56.077Z,467.00
2023-03-29T03:32:56.058Z,467.00
2023-03-29T03:33:56.033Z,466.00
2023-03-29T03:34:56.016Z,468.00
2023-03-29T03:35:56.065Z,469.00
2023-03-29T03:36:56.002Z,469.00
2023-03-29T03:37:56.049Z,471.00
2023-03-29T03:38:56.010Z,471.00
2023-03-29T03:39:56.020Z,470.00
2023-03-29T03:40:56.026Z,470.00
2023-03-29T03:41:55.998Z,470.00
2023-03-29T03:42:56.014Z,471.00
2023-03-29T03:43:56.033Z,473.00
2023-03-29T03:44:56.041Z,470.00
2023-03-29T03:45:56.050Z,471.00
2023-03-29T03:46:56.016Z,469.00
2023-03-29T03:47:56.053Z,470.00
2023-03-29T03:48:56.028Z,470.00
2023-03-29T03:49:55.988Z,470.00
2023-03-29T03:50:55.991Z,470.00
2023-03-29T03:51:56.015Z,468.00
2023-03-29T03:52:56.011Z,467.00
2023-03-29T03:53:56.037Z,468.00
2023-03-29T03:54:55.988Z,467.00
2023-03-29T03:55:56.080Z,465.00
2023-03-29T03:56:56.049Z,468.00
2023-03-29T03:57:56.126Z,466.00
2023-03-29T03:58:56.060Z,465.00
2023-03-29T03:59:56.059Z,465.00
2023-03-29T04:00:56.054Z,464.00
2023-03-29T04:01:56.190Z,465.00
2023-03-29T04:02:56.231Z,464.00
2023-03-29T04:03:56.289Z,461.00
2023-03-29T04:04:56.080Z,460.00
2023-03-29T04:05:56.116Z,457.00
2023-03-29T04:06:56.081Z,454.00
2023-03-29T04:07:56.087Z,452.00
2023-03-29T04:08:56.110Z,452.00
2023-03-29T04:09:56.089Z,452.00
2023-03-29T04:10:56.122Z,452.00
2023-03-29T04:11:56.143Z,451.00
2023-03-29T04:12:56.132Z,453.00
2023-03-29T04:13:56.158Z,454.00
2023-03-29T04:14:56.146Z,454.00
2023-03-29T04:15:58.163Z,455.00
2023-03-29T04:16:56.154Z,454.00
2023-03-29T04:17:56.285Z,452.00
2023-03-29T04:18:56.164Z,450.00
2023-03-29T04:19:56.163Z,450.00
2023-03-29T04:20:56.153Z,453.00
2023-03-29T04:21:56.115Z,454.00
2023-03-29T04:22:56.150Z,455.00
2023-03-29T04:23:56.101Z,454.00
2023-03-29T04:24:56.105Z,454.00
2023-03-29T04:25:56.087Z,454.00
2023-03-29T04:26:56.106Z,454.00
2023-03-29T04:27:56.099Z,454.00
2023-03-29T04:28:56.096Z,455.00
2023-03-29T04:29:56.060Z,454.00
2023-03-29T04:30:56.165Z,453.00
2023-03-29T04:31:56.073Z,454.00
2023-03-29T04:32:56.289Z,456.00
2023-03-29T04:33:57.783Z,457.00
2023-03-29T04:34:56.030Z,458.00
2023-03-29T04:35:56.029Z,458.00
2023-03-29T04:36:56.029Z,458.00
2023-03-29T04:37:56.035Z,458.00
2023-03-29T04:38:56.029Z,456.00
2023-03-29T04:39:56.000Z,451.00
2023-03-29T04:40:55.995Z,447.00
2023-03-29T04:41:56.010Z,448.00
2023-03-29T04:42:55.993Z,449.00
2023-03-29T04:43:56.024Z,449.00
2023-03-29T04:44:56.053Z,448.00
2023-03-29T04:45:56.066Z,445.00
2023-03-29T04:46:55.947Z,447.00
2023-03-29T04:47:56.098Z,449.00
2023-03-29T04:48:55.943Z,451.00
2023-03-29T04:49:55.924Z,454.00
2023-03-29T04:50:55.926Z,451.00
2023-03-29T04:51:55.958Z,452.00
2023-03-29T04:52:55.922Z,450.00
2023-03-29T04:53:55.914Z,451.00
2023-03-29T04:54:55.894Z,451.00
2023-03-29T04:55:55.896Z,451.00
2023-03-29T04:56:55.964Z,450.00
2023-03-29T04:57:55.883Z,453.00
2023-03-29T04:58:55.896Z,457.00
2023-03-29T04:59:55.895Z,460.00
2023-03-29T05:01:03.160Z,460.00
2023-03-29T05:01:55.866Z,460.00
2023-03-29T05:02:55.919Z,459.00
2023-03-29T05:03:55.867Z,459.00
2023-03-29T05:04:55.857Z,458.00
2023-03-29T05:05:55.817Z,459.00
2023-03-29T05:06:55.835Z,458.00
2023-03-29T05:07:55.805Z,459.00
2023-03-29T05:08:55.841Z,458.00
2023-03-29T05:09:55.785Z,460.00
2023-03-29T05:10:55.805Z,460.00
2023-03-29T05:11:55.819Z,460.00
2023-03-29T05:12:55.897Z,458.00
2023-03-29T05:13:55.778Z,456.00
2023-03-29T05:14:55.793Z,455.00
2023-03-29T05:15:55.835Z,453.00
2023-03-29T05:16:55.740Z,452.00
2023-03-29T05:17:55.839Z,452.00
2023-03-29T05:18:55.741Z,453.00
2023-03-29T05:19:55.750Z,454.00
2023-03-29T05:20:55.722Z,454.00
2023-03-29T05:21:55.751Z,456.00
2023-03-29T05:22:55.726Z,457.00
2023-03-29T05:23:55.691Z,460.00
2023-03-29T05:24:55.702Z,460.00
2023-03-29T05:25:55.718Z,461.00
2023-03-29T05:26:55.717Z,461.00
2023-03-29T05:27:55.673Z,458.00
2023-03-29T05:28:55.677Z,457.00
2023-03-29T05:29:55.685Z,455.00
2023-03-29T05:30:55.665Z,453.00
2023-03-29T05:31:55.662Z,452.00
2023-03-29T05:32:55.673Z,453.00
2023-03-29T05:33:55.631Z,455.00
2023-03-29T05:34:55.638Z,458.00
2023-03-29T05:35:55.646Z,460.00
2023-03-29T05:36:55.616Z,461.00
2023-03-29T05:37:55.661Z,461.00
2023-03-29T05:38:55.611Z,466.00
2023-03-29T05:40:05.666Z,485.00
2023-03-29T05:40:56.596Z,527.00
2023-03-29T05:41:55.593Z,542.00
2023-03-29T05:42:55.557Z,544.00
2023-03-29T05:43:56.062Z,542.00
2023-03-29T05:44:55.587Z,550.00
2023-03-29T05:47:14.661Z,689.00
2023-03-29T05:48:14.668Z,676.00
2023-03-29T05:49:14.673Z,669.00
2023-03-29T05:50:15.379Z,669.00
2023-03-29T05:51:14.630Z,666.00
2023-03-29T05:52:14.646Z,662.00
2023-03-29T05:53:14.620Z,658.00
2023-03-29T05:54:14.672Z,653.00
2023-03-29T05:55:14.612Z,650.00
2023-03-29T05:56:14.593Z,650.00
2023-03-29T05:57:14.607Z,651.00
2023-03-29T05:58:14.603Z,649.00
2023-03-29T05:59:14.564Z,646.00
2023-03-29T06:00:14.603Z,642.00
2023-03-29T06:01:14.563Z,636.00
2023-03-29T06:02:14.544Z,633.00
2023-03-29T06:03:20.804Z,631.00
2023-03-29T06:04:15.702Z,630.00
2023-03-29T06:05:14.536Z,629.00
2023-03-29T06:06:14.543Z,628.00
2023-03-29T06:07:14.503Z,625.00
2023-03-29T06:08:14.510Z,627.00
2023-03-29T06:09:14.523Z,625.00
2023-03-29T06:10:14.581Z,620.00
2023-03-29T06:11:14.528Z,620.00
2023-03-29T06:12:14.509Z,619.00
2023-03-29T06:13:14.551Z,620.00
2023-03-29T06:14:14.606Z,620.00
2023-03-29T06:15:15.554Z,616.00
2023-03-29T06:16:14.693Z,614.00
2023-03-29T06:17:14.875Z,616.00
2023-03-29T06:18:14.797Z,612.00
2023-03-29T06:19:14.904Z,610.00
2023-03-29T06:20:14.979Z,609.00
2023-03-29T06:21:15.028Z,608.00
2023-03-29T06:22:15.084Z,607.00
2023-03-29T06:23:15.437Z,605.00
2023-03-29T06:24:15.401Z,606.00
2023-03-29T06:25:15.377Z,604.00
2023-03-29T06:26:15.259Z,604.00
2023-03-29T06:27:15.324Z,602.00
2023-03-29T06:28:16.377Z,603.00
2023-03-29T06:29:15.522Z,598.00
2023-03-29T06:30:15.562Z,597.00
2023-03-29T06:31:15.625Z,597.00
2023-03-29T06:32:15.635Z,596.00
2023-03-29T06:33:15.705Z,595.00
2023-03-29T06:34:15.748Z,594.00
2023-03-29T06:35:15.824Z,595.00
2023-03-29T06:36:15.970Z,593.00
2023-03-29T06:37:15.933Z,596.00
2023-03-29T06:38:16.026Z,601.00
2023-03-29T06:39:16.136Z,621.00
2023-03-29T06:40:16.355Z,702.00
2023-03-29T06:41:16.141Z,703.00
2023-03-29T06:42:21.230Z,705.00
2023-03-29T06:43:17.126Z,675.00
2023-03-29T06:44:16.405Z,663.00
2023-03-29T06:45:16.084Z,657.00
2023-03-29T06:46:16.174Z,643.00
2023-03-29T06:47:16.074Z,647.00
2023-03-29T06:48:17.092Z,636.00
2023-03-29T06:49:16.051Z,607.00
2023-03-29T06:50:16.076Z,598.00
2023-03-29T06:51:16.050Z,604.00
2023-03-29T06:52:16.059Z,591.00
2023-03-29T06:53:16.031Z,592.00
2023-03-29T06:54:16.208Z,650.00
2023-03-29T06:55:16.030Z,569.00
2023-03-29T06:56:17.340Z,574.00
2023-03-29T06:57:16.105Z,575.00
2023-03-29T06:58:17.254Z,572.00
2023-03-29T06:59:15.998Z,567.00
2023-03-29T07:00:16.380Z,566.00
2023-03-29T07:01:16.088Z,564.00
2023-03-29T07:02:16.139Z,557.00
2023-03-29T07:03:16.118Z,552.00
2023-03-29T07:04:16.184Z,554.00
2023-03-29T07:05:16.182Z,557.00
2023-03-29T07:06:16.144Z,560.00
2023-03-29T07:07:16.159Z,562.00
2023-03-29T07:08:16.170Z,563.00
2023-03-29T07:09:17.153Z,564.00
2023-03-29T07:10:16.375Z,565.00
2023-03-29T07:11:16.156Z,567.00
2023-03-29T07:12:16.146Z,569.00
2023-03-29T07:13:16.125Z,574.00
2023-03-29T07:14:16.114Z,577.00
2023-03-29T07:15:16.194Z,578.00
2023-03-29T07:16:16.147Z,578.00
2023-03-29T07:17:16.123Z,583.00
2023-03-29T07:18:16.114Z,585.00
2023-03-29T07:19:16.109Z,586.00
2023-03-29T07:20:16.120Z,586.00
2023-03-29T07:21:16.108Z,585.00
2023-03-29T07:22:16.058Z,585.00
2023-03-29T07:23:16.060Z,583.00
2023-03-29T07:24:16.078Z,583.00
2023-03-29T07:25:16.082Z,584.00
2023-03-29T07:26:16.040Z,586.00
2023-03-29T07:27:17.080Z,588.00
2023-03-29T07:28:16.031Z,590.00
2023-03-29T07:29:16.027Z,590.00
2023-03-29T07:30:16.032Z,591.00
2023-03-29T07:31:16.046Z,594.00
2023-03-29T07:32:16.029Z,649.00
2023-03-29T07:33:16.198Z,821.00
2023-03-29T07:34:15.960Z,681.00
2023-03-29T07:35:16.006Z,718.00
2023-03-29T07:36:15.990Z,759.00
2023-03-29T07:37:15.998Z,729.00
2023-03-29T07:38:16.025Z,773.00
2023-03-29T07:39:16.077Z,869.00
2023-03-29T07:40:16.101Z,821.00
2023-03-29T07:41:16.149Z,974.00
2023-03-29T07:42:16.172Z,996.00
2023-03-29T07:43:16.221Z,874.00
2023-03-29T07:44:16.232Z,891.00
2023-03-29T07:45:16.478Z,924.00
2023-03-29T07:46:16.339Z,910.00
2023-03-29T07:47:16.320Z,1022.00
2023-03-29T07:48:16.362Z,927.00
2023-03-29T07:49:16.465Z,840.00
2023-03-29T07:50:16.429Z,994.00
2023-03-29T07:51:16.465Z,953.00
2023-03-29T07:52:16.494Z,835.00
2023-03-29T07:53:16.622Z,794.00
2023-03-29T07:54:16.606Z,781.00
2023-03-29T07:55:16.644Z,770.00
2023-03-29T07:56:16.737Z,769.00
2023-03-29T07:57:16.769Z,801.00
2023-03-29T07:58:16.812Z,785.00
2023-03-29T07:59:16.894Z,813.00
2023-03-29T08:00:17.167Z,838.00
2023-03-29T08:01:19.372Z,808.00
2023-03-29T08:02:17.012Z,733.00
2023-03-29T08:03:17.166Z,801.00
2023-03-29T08:04:17.027Z,805.00
2023-03-29T08:05:23.194Z,881.00
2023-03-29T08:06:17.968Z,783.00
2023-03-29T08:07:18.907Z,886.00
2023-03-29T08:08:16.939Z,794.00
2023-03-29T08:09:16.952Z,727.00
2023-03-29T08:10:16.951Z,783.00
2023-03-29T08:11:16.978Z,775.00
2023-03-29T08:12:16.933Z,749.00
2023-03-29T08:13:18.146Z,741.00
2023-03-29T08:14:17.106Z,789.00
2023-03-29T08:15:17.414Z,798.00
2023-03-29T08:16:16.940Z,806.00
2023-03-29T08:17:18.513Z,814.00
2023-03-29T08:18:16.883Z,849.00
2023-03-29T08:19:16.944Z,841.00
2023-03-29T08:20:18.037Z,798.00
2023-03-29T08:21:16.874Z,796.00
2023-03-29T08:22:16.871Z,779.00
2023-03-29T08:23:16.865Z,776.00
2023-03-29T08:24:17.624Z,771.00
2023-03-29T08:25:16.873Z,769.00
2023-03-29T08:26:16.854Z,794.00
2023-03-29T08:27:16.838Z,764.00
2023-03-29T08:28:16.834Z,766.00
2023-03-29T08:29:16.872Z,762.00
2023-03-29T08:30:16.890Z,752.00
2023-03-29T08:31:16.928Z,739.00
2023-03-29T08:32:16.901Z,736.00
2023-03-29T08:33:17.025Z,830.00
2023-03-29T08:34:16.993Z,800.00
2023-03-29T08:35:17.092Z,778.00
2023-03-29T08:36:17.089Z,781.00
2023-03-29T08:37:17.117Z,747.00
2023-03-29T08:38:17.186Z,749.00
2023-03-29T08:39:18.499Z,759.00
2023-03-29T08:40:17.432Z,787.00
2023-03-29T08:41:17.377Z,800.00
2023-03-29T08:42:17.414Z,833.00
2023-03-29T08:43:17.523Z,1017.00
2023-03-29T08:44:17.527Z,782.00
2023-03-29T08:45:17.610Z,784.00
2023-03-29T08:46:17.728Z,852.00
2023-03-29T08:47:17.787Z,829.00
2023-03-29T08:48:17.801Z,767.00
2023-03-29T08:49:17.847Z,816.00
2023-03-29T08:50:17.887Z,864.00
2023-03-29T08:51:17.921Z,848.00
2023-03-29T08:52:17.969Z,831.00
2023-03-29T08:53:18.035Z,836.00
2023-03-29T08:54:18.109Z,836.00
2023-03-29T08:55:18.474Z,809.00
2023-03-29T08:56:18.189Z,822.00
2023-03-29T08:57:18.952Z,873.00
2023-03-29T08:58:18.323Z,841.00
2023-03-29T08:59:18.359Z,834.00
2023-03-29T09:00:18.488Z,791.00
2023-03-29T09:01:18.492Z,759.00
2023-03-29T09:02:18.671Z,753.00
2023-03-29T09:03:18.671Z,750.00
2023-03-29T09:04:18.629Z,755.00
2023-03-29T09:05:18.697Z,1008.00
2023-03-29T09:06:18.739Z,808.00
2023-03-29T09:07:18.815Z,796.00
2023-03-29T09:08:18.890Z,1255.00
2023-03-29T09:09:18.941Z,868.00
2023-03-29T09:10:19.007Z,808.00
2023-03-29T09:11:19.008Z,861.00
2023-03-29T09:12:19.061Z,728.00
2023-03-29T09:13:19.161Z,821.00
2023-03-29T09:14:19.161Z,791.00
2023-03-29T09:15:19.199Z,876.00
2023-03-29T09:16:19.337Z,761.00
2023-03-29T09:17:19.352Z,732.00
2023-03-29T09:18:19.418Z,737.00
2023-03-29T09:19:19.445Z,773.00
2023-03-29T09:20:19.932Z,920.00
2023-03-29T09:21:19.480Z,777.00
2023-03-29T09:22:19.540Z,790.00
2023-03-29T09:23:19.577Z,785.00
2023-03-29T09:24:19.583Z,760.00
2023-03-29T09:25:19.609Z,838.00
2023-03-29T09:26:19.633Z,746.00
2023-03-29T09:27:19.619Z,735.00
2023-03-29T09:28:19.641Z,729.00
2023-03-29T09:29:19.644Z,720.00
2023-03-29T09:30:19.917Z,717.00
2023-03-29T09:31:19.739Z,748.00
2023-03-29T09:32:19.662Z,736.00
2023-03-29T09:33:19.718Z,715.00
2023-03-29T09:34:19.691Z,710.00
2023-03-29T09:35:19.923Z,717.00
2023-03-29T09:36:19.839Z,877.00
2023-03-29T09:37:19.709Z,749.00
2023-03-29T09:38:19.700Z,775.00
2023-03-29T09:39:19.690Z,821.00
2023-03-29T09:40:19.706Z,746.00
2023-03-29T09:41:19.707Z,809.00
2023-03-29T09:42:19.707Z,858.00
2023-03-29T09:43:19.749Z,733.00
2023-03-29T09:44:30.132Z,726.00
2023-03-29T09:45:20.745Z,720.00
2023-03-29T09:46:19.767Z,724.00
2023-03-29T09:47:19.757Z,728.00
2023-03-29T09:48:19.730Z,738.00
2023-03-29T09:49:19.737Z,863.00
2023-03-29T09:50:30.166Z,845.00
2023-03-29T09:51:20.697Z,951.00
2023-03-29T09:52:19.696Z,778.00
2023-03-29T09:53:19.720Z,744.00
2023-03-29T09:54:19.673Z,748.00
2023-03-29T09:55:19.716Z,711.00
2023-03-29T09:56:19.688Z,702.00
2023-03-29T09:57:19.738Z,708.00
2023-03-29T09:58:19.621Z,710.00
2023-03-29T09:59:19.641Z,707.00
2023-03-29T10:00:19.658Z,694.00
2023-03-29T10:01:19.741Z,681.00
2023-03-29T10:02:19.677Z,674.00
2023-03-29T10:03:19.620Z,672.00
2023-03-29T10:04:19.787Z,670.00
2023-03-29T10:05:20.474Z,671.00
2023-03-29T10:06:20.425Z,711.00
2023-03-29T10:07:19.595Z,705.00
2023-03-29T10:08:19.963Z,697.00
2023-03-29T10:09:19.544Z,696.00
2023-03-29T10:10:19.540Z,696.00
2023-03-29T10:11:19.595Z,697.00
2023-03-29T10:12:19.621Z,694.00
2023-03-29T10:13:19.630Z,692.00
2023-03-29T10:14:19.537Z,688.00
2023-03-29T10:15:29.317Z,690.00
2023-03-29T10:16:20.536Z,694.00
2023-03-29T10:17:19.534Z,689.00
2023-03-29T10:18:19.569Z,688.00
2023-03-29T10:19:19.526Z,684.00
2023-03-29T10:20:19.569Z,679.00
2023-03-29T10:21:19.992Z,672.00
2023-03-29T10:22:19.514Z,663.00
2023-03-29T10:23:19.469Z,657.00
2023-03-29T10:24:19.475Z,655.00
2023-03-29T10:25:19.517Z,658.00
2023-03-29T10:26:19.510Z,652.00
2023-03-29T10:27:19.431Z,649.00
2023-03-29T10:28:19.446Z,648.00
2023-03-29T10:29:19.473Z,643.00
2023-03-29T10:30:19.408Z,641.00
2023-03-29T10:31:19.465Z,636.00
2023-03-29T10:32:19.393Z,638.00
2023-03-29T10:33:19.404Z,651.00
2023-03-29T10:34:19.414Z,696.00
2023-03-29T10:35:19.397Z,694.00
2023-03-29T10:36:19.417Z,670.00
2023-03-29T10:37:19.469Z,668.00
2023-03-29T10:38:19.392Z,679.00
2023-03-29T10:39:19.323Z,681.00
2023-03-29T10:40:19.369Z,684.00
2023-03-29T10:41:19.322Z,682.00
2023-03-29T10:42:19.347Z,682.00
2023-03-29T10:43:19.347Z,676.00
2023-03-29T10:44:19.362Z,667.00
2023-03-29T10:45:19.424Z,663.00
2023-03-29T10:46:19.500Z,654.00
2023-03-29T10:47:19.438Z,652.00
2023-03-29T10:48:19.544Z,654.00
2023-03-29T10:49:19.486Z,647.00
2023-03-29T10:50:19.552Z,646.00
2023-03-29T10:51:19.937Z,653.00
2023-03-29T10:52:19.574Z,658.00
2023-03-29T10:53:19.622Z,661.00
2023-03-29T10:54:19.620Z,661.00
2023-03-29T10:55:19.656Z,665.00
2023-03-29T10:56:19.708Z,665.00
2023-03-29T10:57:21.582Z,660.00
2023-03-29T10:58:19.680Z,660.00
2023-03-29T10:59:19.670Z,649.00
2023-03-29T11:00:19.695Z,646.00
2023-03-29T11:01:19.711Z,649.00
2023-03-29T11:02:19.666Z,655.00
2023-03-29T11:03:21.723Z,658.00
2023-03-29T11:04:19.656Z,657.00
2023-03-29T11:05:19.658Z,650.00
2023-03-29T11:06:19.975Z,650.00
2023-03-29T11:07:19.693Z,646.00
2023-03-29T11:08:19.611Z,642.00
2023-03-29T11:09:19.663Z,637.00
2023-03-29T11:10:19.631Z,639.00
2023-03-29T11:11:19.603Z,642.00
2023-03-29T11:12:19.630Z,651.00
2023-03-29T11:13:19.643Z,666.00
2023-03-29T11:14:19.672Z,710.00
2023-03-29T11:15:19.733Z,720.00
2023-03-29T11:16:19.824Z,720.00
2023-03-29T11:17:19.745Z,722.00
2023-03-29T11:18:19.747Z,720.00
2023-03-29T11:19:19.751Z,707.00
2023-03-29T11:20:19.753Z,697.00
2023-03-29T11:21:19.984Z,703.00
2023-03-29T11:22:19.781Z,705.00
2023-03-29T11:23:19.784Z,684.00
2023-03-29T11:24:19.804Z,679.00
2023-03-29T11:25:19.789Z,795.00
2023-03-29T11:26:20.022Z,789.00
2023-03-29T11:27:19.805Z,776.00
2023-03-29T11:28:19.821Z,776.00
2023-03-29T11:29:19.844Z,771.00
2023-03-29T11:30:19.847Z,770.00
2023-03-29T11:31:20.044Z,770.00
2023-03-29T11:32:19.888Z,767.00
2023-03-29T11:33:19.848Z,769.00
2023-03-29T11:34:19.871Z,767.00
2023-03-29T11:35:19.987Z,765.00
2023-03-29T11:36:19.981Z,764.00
2023-03-29T11:37:19.875Z,761.00
2023-03-29T11:38:19.848Z,754.00
2023-03-29T11:39:19.871Z,752.00
2023-03-29T11:40:19.855Z,752.00
2023-03-29T11:41:19.839Z,752.00
2023-03-29T11:42:19.814Z,749.00
2023-03-29T11:43:19.807Z,750.00
2023-03-29T11:44:19.810Z,754.00
2023-03-29T11:45:19.827Z,753.00
2023-03-29T11:46:19.939Z,753.00
2023-03-29T11:47:19.821Z,753.00
2023-03-29T11:48:19.829Z,750.00
2023-03-29T11:49:19.828Z,748.00
2023-03-29T11:50:19.895Z,748.00
2023-03-29T11:51:19.919Z,746.00
2023-03-29T11:52:19.956Z,744.00
2023-03-29T11:53:19.982Z,742.00
2023-03-29T11:54:20.012Z,741.00
2023-03-29T11:55:20.058Z,743.00
2023-03-29T11:56:20.152Z,744.00
2023-03-29T11:57:20.243Z,744.00
2023-03-29T11:58:20.221Z,744.00
2023-03-29T11:59:20.334Z,744.00
2023-03-29T12:00:20.354Z,742.00
2023-03-29T12:01:20.416Z,740.00
2023-03-29T12:02:20.555Z,740.00
2023-03-29T12:03:20.677Z,741.00
2023-03-29T12:04:20.686Z,742.00
2023-03-29T12:05:20.645Z,742.00
2023-03-29T12:06:20.713Z,740.00
2023-03-29T12:07:20.766Z,738.00
2023-03-29T12:08:20.820Z,739.00
2023-03-29T12:09:20.861Z,736.00
2023-03-29T12:10:20.906Z,736.00
2023-03-29T12:11:20.968Z,733.00
2023-03-29T12:12:21.036Z,734.00
2023-03-29T12:13:21.116Z,733.00
2023-03-29T12:14:21.167Z,733.00
2023-03-29T12:15:21.201Z,733.00
2023-03-29T12:16:21.306Z,730.00
2023-03-29T12:17:21.318Z,729.00
2023-03-29T12:18:21.393Z,727.00
2023-03-29T12:19:21.439Z,726.00
2023-03-29T12:20:21.494Z,725.00
2023-03-29T12:21:21.575Z,724.00
2023-03-29T12:22:21.605Z,721.00
2023-03-29T12:23:21.723Z,720.00
2023-03-29T12:24:21.749Z,718.00
2023-03-29T12:25:23.260Z,718.00
2023-03-29T12:26:21.845Z,713.00
2023-03-29T12:27:21.908Z,711.00
2023-03-29T12:28:21.998Z,709.00
2023-03-29T12:29:22.050Z,707.00
2023-03-29T12:30:22.118Z,705.00